sensor_id;sensor_type;location;lat;lon;timestamp;P1;durP1;ratioP1;P2;durP2;ratioP2
61017;SDS011;48171;51.550;5.434;2022-12-10T00:00:21;61.33;;;20.13;;
61017;SDS011;48171;51.550;5.434;2022-12-10T00:02:46;58.47;;;19.23;;
61017;SDS011;48171;51.550;5.434;2022-12-10T00:05:11;56.22;;;18.88;;
61017;SDS011;48171;51.550;5.434;2022-12-10T00:07:37;53.42;;;18.23;;
61017;SDS011;48171;51.550;5.434;2022-12-10T00:10:02;57.88;;;19.15;;
61017;SDS011;48171;51.550;5.434;2022-12-10T00:12:28;52.05;;;18.83;;
61017;SDS011;48171;51.550;5.434;2022-12-10T00:14:53;55.42;;;17.63;;
61017;SDS011;48171;51.550;5.434;2022-12-10T00:17:18;54.88;;;17.23;;
61017;SDS011;48171;51.550;5.434;2022-12-10T00:19:43;62.60;;;19.75;;
61017;SDS011;48171;51.550;5.434;2022-12-10T00:22:09;60.55;;;20.85;;
61017;SDS011;48171;51.550;5.434;2022-12-10T00:24:34;61.30;;;19.63;;
61017;SDS011;48171;51.550;5.434;2022-12-10T00:26:59;64.00;;;19.90;;
61017;SDS011;48171;51.550;5.434;2022-12-10T00:29:24;62.35;;;18.95;;
61017;SDS011;48171;51.550;5.434;2022-12-10T00:31:50;54.05;;;18.75;;
61017;SDS011;48171;51.550;5.434;2022-12-10T00:34:15;56.78;;;18.80;;
61017;SDS011;48171;51.550;5.434;2022-12-10T00:36:44;57.55;;;18.50;;
61017;SDS011;48171;51.550;5.434;2022-12-10T00:39:11;62.40;;;18.15;;
61017;SDS011;48171;51.550;5.434;2022-12-10T00:41:38;51.38;;;17.67;;
61017;SDS011;48171;51.550;5.434;2022-12-10T00:44:04;64.80;;;19.60;;
61017;SDS011;48171;51.550;5.434;2022-12-10T00:46:30;57.53;;;19.05;;
61017;SDS011;48171;51.550;5.434;2022-12-10T00:48:55;62.70;;;20.17;;
61017;SDS011;48171;51.550;5.434;2022-12-10T00:51:23;58.70;;;19.27;;
61017;SDS011;48171;51.550;5.434;2022-12-10T00:53:50;57.05;;;19.38;;
61017;SDS011;48171;51.550;5.434;2022-12-10T00:56:18;69.65;;;20.13;;
61017;SDS011;48171;51.550;5.434;2022-12-10T00:58:45;58.63;;;17.90;;
61017;SDS011;48171;51.550;5.434;2022-12-10T01:03:46;63.88;;;20.60;;
61017;SDS011;48171;51.550;5.434;2022-12-10T01:08:39;58.83;;;20.27;;
61017;SDS011;48171;51.550;5.434;2022-12-10T01:11:05;61.78;;;19.38;;
61017;SDS011;48171;51.550;5.434;2022-12-10T01:13:31;67.22;;;21.13;;
61017;SDS011;48171;51.550;5.434;2022-12-10T01:15:57;67.93;;;21.52;;
61017;SDS011;48171;51.550;5.434;2022-12-10T01:18:25;57.75;;;18.27;;
61017;SDS011;48171;51.550;5.434;2022-12-10T01:20:50;54.58;;;18.65;;
61017;SDS011;48171;51.550;5.434;2022-12-10T01:23:15;62.10;;;21.30;;
61017;SDS011;48171;51.550;5.434;2022-12-10T01:25:41;61.65;;;19.15;;
61017;SDS011;48171;51.550;5.434;2022-12-10T01:28:06;62.67;;;19.77;;
61017;SDS011;48171;51.550;5.434;2022-12-10T01:30:32;68.15;;;20.88;;
61017;SDS011;48171;51.550;5.434;2022-12-10T01:32:57;55.85;;;19.45;;
61017;SDS011;48171;51.550;5.434;2022-12-10T01:35:22;69.05;;;21.63;;
61017;SDS011;48171;51.550;5.434;2022-12-10T01:37:47;72.05;;;22.08;;
61017;SDS011;48171;51.550;5.434;2022-12-10T01:40:13;63.65;;;20.60;;
61017;SDS011;48171;51.550;5.434;2022-12-10T01:42:38;63.83;;;20.33;;
61017;SDS011;48171;51.550;5.434;2022-12-10T01:45:05;67.20;;;20.30;;
61017;SDS011;48171;51.550;5.434;2022-12-10T01:47:33;59.13;;;19.15;;
61017;SDS011;48171;51.550;5.434;2022-12-10T01:49:58;58.40;;;19.13;;
61017;SDS011;48171;51.550;5.434;2022-12-10T01:52:25;66.63;;;19.92;;
61017;SDS011;48171;51.550;5.434;2022-12-10T01:54:51;68.10;;;22.33;;
61017;SDS011;48171;51.550;5.434;2022-12-10T01:57:17;71.93;;;22.77;;
61017;SDS011;48171;51.550;5.434;2022-12-10T01:59:48;73.88;;;24.27;;
61017;SDS011;48171;51.550;5.434;2022-12-10T02:02:20;71.50;;;22.42;;
61017;SDS011;48171;51.550;5.434;2022-12-10T02:04:54;74.10;;;23.67;;
61017;SDS011;48171;51.550;5.434;2022-12-10T02:14:02;76.72;;;23.52;;
61017;SDS011;48171;51.550;5.434;2022-12-10T02:16:34;77.75;;;23.63;;
61017;SDS011;48171;51.550;5.434;2022-12-10T02:22:21;80.35;;;24.67;;
61017;SDS011;48171;51.550;5.434;2022-12-10T02:24:51;85.80;;;25.42;;
61017;SDS011;48171;51.550;5.434;2022-12-10T02:27:33;82.25;;;25.70;;
61017;SDS011;48171;51.550;5.434;2022-12-10T02:30:06;78.65;;;23.48;;
61017;SDS011;48171;51.550;5.434;2022-12-10T02:32:36;85.93;;;26.70;;
61017;SDS011;48171;51.550;5.434;2022-12-10T02:35:11;85.65;;;24.30;;
61017;SDS011;48171;51.550;5.434;2022-12-10T02:38:42;78.90;;;23.17;;
61017;SDS011;48171;51.550;5.434;2022-12-10T02:40:56;78.30;;;24.88;;
61017;SDS011;48171;51.550;5.434;2022-12-10T02:43:24;76.28;;;23.88;;
61017;SDS011;48171;51.550;5.434;2022-12-10T02:45:52;87.07;;;24.23;;
61017;SDS011;48171;51.550;5.434;2022-12-10T02:48:19;66.97;;;22.27;;
61017;SDS011;48171;51.550;5.434;2022-12-10T02:50:45;89.03;;;24.92;;
61017;SDS011;48171;51.550;5.434;2022-12-10T02:53:10;80.18;;;24.08;;
61017;SDS011;48171;51.550;5.434;2022-12-10T02:55:43;85.85;;;25.58;;
61017;SDS011;48171;51.550;5.434;2022-12-10T03:01:16;76.00;;;24.08;;
61017;SDS011;48171;51.550;5.434;2022-12-10T03:04:06;82.18;;;23.40;;
61017;SDS011;48171;51.550;5.434;2022-12-10T03:06:40;83.07;;;24.17;;
61017;SDS011;48171;51.550;5.434;2022-12-10T03:09:18;86.68;;;25.35;;
61017;SDS011;48171;51.550;5.434;2022-12-10T03:11:54;78.50;;;23.42;;
61017;SDS011;48171;51.550;5.434;2022-12-10T03:14:25;84.25;;;24.25;;
61017;SDS011;48171;51.550;5.434;2022-12-10T03:16:55;75.78;;;23.48;;
61017;SDS011;48171;51.550;5.434;2022-12-10T03:19:23;77.97;;;23.15;;
61017;SDS011;48171;51.550;5.434;2022-12-10T03:21:57;86.43;;;25.73;;
61017;SDS011;48171;51.550;5.434;2022-12-10T03:24:23;72.13;;;22.75;;
61017;SDS011;48171;51.550;5.434;2022-12-10T03:26:52;78.15;;;24.33;;
61017;SDS011;48171;51.550;5.434;2022-12-10T03:29:18;80.60;;;22.85;;
61017;SDS011;48171;51.550;5.434;2022-12-10T03:31:48;73.97;;;23.27;;
61017;SDS011;48171;51.550;5.434;2022-12-10T03:34:15;85.07;;;23.17;;
61017;SDS011;48171;51.550;5.434;2022-12-10T03:36:41;78.43;;;24.60;;
61017;SDS011;48171;51.550;5.434;2022-12-10T03:39:07;84.07;;;24.30;;
61017;SDS011;48171;51.550;5.434;2022-12-10T03:41:33;84.38;;;26.20;;
61017;SDS011;48171;51.550;5.434;2022-12-10T03:43:59;90.57;;;25.75;;
61017;SDS011;48171;51.550;5.434;2022-12-10T03:46:25;87.00;;;25.67;;
61017;SDS011;48171;51.550;5.434;2022-12-10T03:48:53;83.70;;;23.65;;
61017;SDS011;48171;51.550;5.434;2022-12-10T03:51:19;84.93;;;23.98;;
61017;SDS011;48171;51.550;5.434;2022-12-10T03:53:45;83.13;;;25.10;;
61017;SDS011;48171;51.550;5.434;2022-12-10T03:56:10;85.55;;;23.60;;
61017;SDS011;48171;51.550;5.434;2022-12-10T03:58:36;80.80;;;23.65;;
61017;SDS011;48171;51.550;5.434;2022-12-10T04:01:02;88.22;;;24.30;;
61017;SDS011;48171;51.550;5.434;2022-12-10T04:03:28;90.82;;;24.17;;
61017;SDS011;48171;51.550;5.434;2022-12-10T04:05:54;87.32;;;24.17;;
61017;SDS011;48171;51.550;5.434;2022-12-10T04:08:19;91.47;;;25.38;;
61017;SDS011;48171;51.550;5.434;2022-12-10T04:10:44;86.18;;;23.95;;
61017;SDS011;48171;51.550;5.434;2022-12-10T04:13:09;96.70;;;26.58;;
61017;SDS011;48171;51.550;5.434;2022-12-10T04:16:13;92.10;;;26.10;;
61017;SDS011;48171;51.550;5.434;2022-12-10T04:18:55;98.70;;;24.88;;
61017;SDS011;48171;51.550;5.434;2022-12-10T04:21:22;88.38;;;26.13;;
61017;SDS011;48171;51.550;5.434;2022-12-10T04:24:07;99.57;;;26.83;;
61017;SDS011;48171;51.550;5.434;2022-12-10T04:26:52;93.72;;;25.55;;
61017;SDS011;48171;51.550;5.434;2022-12-10T04:29:19;90.90;;;25.42;;
61017;SDS011;48171;51.550;5.434;2022-12-10T04:31:45;92.18;;;24.23;;
61017;SDS011;48171;51.550;5.434;2022-12-10T04:34:11;79.63;;;24.00;;
61017;SDS011;48171;51.550;5.434;2022-12-10T04:36:36;99.25;;;26.52;;
61017;SDS011;48171;51.550;5.434;2022-12-10T04:39:02;96.00;;;25.38;;
61017;SDS011;48171;51.550;5.434;2022-12-10T04:41:27;98.88;;;27.10;;
61017;SDS011;48171;51.550;5.434;2022-12-10T04:43:52;105.07;;;28.13;;
61017;SDS011;48171;51.550;5.434;2022-12-10T04:46:18;105.30;;;27.40;;
61017;SDS011;48171;51.550;5.434;2022-12-10T04:48:43;102.53;;;25.92;;
61017;SDS011;48171;51.550;5.434;2022-12-10T04:51:09;88.43;;;25.55;;
61017;SDS011;48171;51.550;5.434;2022-12-10T04:53:34;94.65;;;25.10;;
61017;SDS011;48171;51.550;5.434;2022-12-10T04:55:59;97.97;;;26.38;;
61017;SDS011;48171;51.550;5.434;2022-12-10T04:58:26;94.70;;;26.02;;
61017;SDS011;48171;51.550;5.434;2022-12-10T05:01:00;106.47;;;26.27;;
61017;SDS011;48171;51.550;5.434;2022-12-10T05:03:26;98.78;;;25.55;;
61017;SDS011;48171;51.550;5.434;2022-12-10T05:05:52;107.60;;;26.25;;
61017;SDS011;48171;51.550;5.434;2022-12-10T05:08:17;102.93;;;26.92;;
61017;SDS011;48171;51.550;5.434;2022-12-10T05:10:42;100.85;;;26.67;;
61017;SDS011;48171;51.550;5.434;2022-12-10T05:13:07;95.75;;;26.05;;
61017;SDS011;48171;51.550;5.434;2022-12-10T05:15:33;90.68;;;25.63;;
61017;SDS011;48171;51.550;5.434;2022-12-10T05:18:03;97.18;;;26.88;;
61017;SDS011;48171;51.550;5.434;2022-12-10T05:20:28;103.10;;;26.10;;
61017;SDS011;48171;51.550;5.434;2022-12-10T05:22:53;108.90;;;27.73;;
61017;SDS011;48171;51.550;5.434;2022-12-10T05:25:37;88.07;;;24.95;;
61017;SDS011;48171;51.550;5.434;2022-12-10T05:28:17;105.68;;;26.13;;
61017;SDS011;48171;51.550;5.434;2022-12-10T05:30:44;93.93;;;27.27;;
61017;SDS011;48171;51.550;5.434;2022-12-10T05:33:09;98.50;;;25.65;;
61017;SDS011;48171;51.550;5.434;2022-12-10T05:35:34;103.25;;;26.10;;
61017;SDS011;48171;51.550;5.434;2022-12-10T05:38:00;94.55;;;24.45;;
61017;SDS011;48171;51.550;5.434;2022-12-10T05:40:25;93.38;;;24.05;;
61017;SDS011;48171;51.550;5.434;2022-12-10T05:42:50;101.65;;;26.48;;
61017;SDS011;48171;51.550;5.434;2022-12-10T05:45:16;93.65;;;25.83;;
61017;SDS011;48171;51.550;5.434;2022-12-10T05:47:41;95.03;;;24.08;;
61017;SDS011;48171;51.550;5.434;2022-12-10T05:50:06;94.78;;;24.00;;
61017;SDS011;48171;51.550;5.434;2022-12-10T05:52:32;94.70;;;23.95;;
61017;SDS011;48171;51.550;5.434;2022-12-10T05:54:57;97.55;;;24.77;;
61017;SDS011;48171;51.550;5.434;2022-12-10T05:57:22;100.22;;;24.92;;
61017;SDS011;48171;51.550;5.434;2022-12-10T05:59:47;101.95;;;27.35;;
61017;SDS011;48171;51.550;5.434;2022-12-10T06:02:13;88.95;;;24.13;;
61017;SDS011;48171;51.550;5.434;2022-12-10T06:04:38;100.05;;;26.30;;
61017;SDS011;48171;51.550;5.434;2022-12-10T06:07:03;97.25;;;26.35;;
61017;SDS011;48171;51.550;5.434;2022-12-10T06:09:28;103.07;;;26.80;;
61017;SDS011;48171;51.550;5.434;2022-12-10T06:11:54;94.22;;;25.40;;
61017;SDS011;48171;51.550;5.434;2022-12-10T06:14:19;105.05;;;25.30;;
61017;SDS011;48171;51.550;5.434;2022-12-10T06:16:44;103.68;;;26.33;;
61017;SDS011;48171;51.550;5.434;2022-12-10T06:19:10;90.30;;;24.08;;
61017;SDS011;48171;51.550;5.434;2022-12-10T06:21:35;101.00;;;25.65;;
61017;SDS011;48171;51.550;5.434;2022-12-10T06:24:00;90.75;;;24.02;;
61017;SDS011;48171;51.550;5.434;2022-12-10T06:26:25;93.85;;;25.60;;
61017;SDS011;48171;51.550;5.434;2022-12-10T06:28:51;92.05;;;25.17;;
61017;SDS011;48171;51.550;5.434;2022-12-10T06:31:18;91.93;;;24.40;;
61017;SDS011;48171;51.550;5.434;2022-12-10T06:33:44;97.07;;;25.20;;
61017;SDS011;48171;51.550;5.434;2022-12-10T06:36:10;87.70;;;23.02;;
61017;SDS011;48171;51.550;5.434;2022-12-10T06:38:36;91.03;;;24.98;;
61017;SDS011;48171;51.550;5.434;2022-12-10T06:41:05;88.72;;;23.60;;
61017;SDS011;48171;51.550;5.434;2022-12-10T06:43:32;80.75;;;22.13;;
61017;SDS011;48171;51.550;5.434;2022-12-10T06:45:58;80.30;;;22.60;;
61017;SDS011;48171;51.550;5.434;2022-12-10T06:48:23;85.53;;;22.77;;
61017;SDS011;48171;51.550;5.434;2022-12-10T06:50:49;89.25;;;22.30;;
61017;SDS011;48171;51.550;5.434;2022-12-10T06:53:14;79.63;;;22.60;;
61017;SDS011;48171;51.550;5.434;2022-12-10T06:55:39;86.88;;;22.23;;
61017;SDS011;48171;51.550;5.434;2022-12-10T06:58:04;83.00;;;22.52;;
61017;SDS011;48171;51.550;5.434;2022-12-10T07:00:30;86.07;;;22.27;;
61017;SDS011;48171;51.550;5.434;2022-12-10T07:02:56;85.40;;;22.25;;
61017;SDS011;48171;51.550;5.434;2022-12-10T07:05:21;89.90;;;22.65;;
61017;SDS011;48171;51.550;5.434;2022-12-10T07:07:46;79.25;;;22.20;;
61017;SDS011;48171;51.550;5.434;2022-12-10T07:10:12;91.03;;;23.38;;
61017;SDS011;48171;51.550;5.434;2022-12-10T07:12:37;91.78;;;23.23;;
61017;SDS011;48171;51.550;5.434;2022-12-10T07:15:02;91.93;;;22.13;;
61017;SDS011;48171;51.550;5.434;2022-12-10T07:17:28;93.82;;;23.35;;
61017;SDS011;48171;51.550;5.434;2022-12-10T07:19:53;92.47;;;24.35;;
61017;SDS011;48171;51.550;5.434;2022-12-10T07:22:19;88.60;;;21.38;;
61017;SDS011;48171;51.550;5.434;2022-12-10T07:24:44;106.32;;;24.88;;
61017;SDS011;48171;51.550;5.434;2022-12-10T07:27:09;88.47;;;23.30;;
61017;SDS011;48171;51.550;5.434;2022-12-10T07:29:35;100.45;;;25.48;;
61017;SDS011;48171;51.550;5.434;2022-12-10T07:32:00;105.68;;;24.55;;
61017;SDS011;48171;51.550;5.434;2022-12-10T07:34:25;98.15;;;24.95;;
61017;SDS011;48171;51.550;5.434;2022-12-10T07:36:51;104.35;;;24.63;;
61017;SDS011;48171;51.550;5.434;2022-12-10T07:39:16;102.80;;;25.08;;
61017;SDS011;48171;51.550;5.434;2022-12-10T07:41:50;100.47;;;25.30;;
61017;SDS011;48171;51.550;5.434;2022-12-10T07:44:17;103.68;;;26.45;;
61017;SDS011;48171;51.550;5.434;2022-12-10T07:46:45;100.43;;;25.85;;
61017;SDS011;48171;51.550;5.434;2022-12-10T07:49:11;88.55;;;24.35;;
61017;SDS011;48171;51.550;5.434;2022-12-10T07:51:36;98.97;;;24.75;;
61017;SDS011;48171;51.550;5.434;2022-12-10T07:54:02;95.40;;;25.13;;
61017;SDS011;48171;51.550;5.434;2022-12-10T07:56:27;101.63;;;26.20;;
61017;SDS011;48171;51.550;5.434;2022-12-10T07:58:53;106.53;;;25.10;;
61017;SDS011;48171;51.550;5.434;2022-12-10T08:01:20;89.00;;;24.08;;
61017;SDS011;48171;51.550;5.434;2022-12-10T08:03:48;100.70;;;24.27;;
61017;SDS011;48171;51.550;5.434;2022-12-10T08:06:14;102.43;;;25.42;;
61017;SDS011;48171;51.550;5.434;2022-12-10T08:08:41;97.63;;;26.65;;
61017;SDS011;48171;51.550;5.434;2022-12-10T08:11:07;103.35;;;25.02;;
61017;SDS011;48171;51.550;5.434;2022-12-10T08:13:33;108.03;;;26.27;;
61017;SDS011;48171;51.550;5.434;2022-12-10T08:16:00;103.18;;;24.55;;
61017;SDS011;48171;51.550;5.434;2022-12-10T08:18:35;106.55;;;25.30;;
61017;SDS011;48171;51.550;5.434;2022-12-10T08:21:07;96.75;;;24.48;;
61017;SDS011;48171;51.550;5.434;2022-12-10T08:23:37;97.28;;;22.92;;
61017;SDS011;48171;51.550;5.434;2022-12-10T08:26:07;90.80;;;23.73;;
61017;SDS011;48171;51.550;5.434;2022-12-10T08:28:44;85.97;;;22.90;;
61017;SDS011;48171;51.550;5.434;2022-12-10T08:31:11;87.13;;;23.10;;
61017;SDS011;48171;51.550;5.434;2022-12-10T08:33:38;93.78;;;22.77;;
61017;SDS011;48171;51.550;5.434;2022-12-10T08:36:05;100.97;;;25.38;;
61017;SDS011;48171;51.550;5.434;2022-12-10T08:38:32;91.90;;;23.90;;
61017;SDS011;48171;51.550;5.434;2022-12-10T08:40:57;102.70;;;25.73;;
61017;SDS011;48171;51.550;5.434;2022-12-10T08:43:23;93.43;;;23.70;;
61017;SDS011;48171;51.550;5.434;2022-12-10T08:45:48;93.38;;;23.75;;
61017;SDS011;48171;51.550;5.434;2022-12-10T08:48:14;99.30;;;23.88;;
61017;SDS011;48171;51.550;5.434;2022-12-10T08:50:39;91.97;;;23.00;;
61017;SDS011;48171;51.550;5.434;2022-12-10T08:53:04;95.65;;;23.60;;
61017;SDS011;48171;51.550;5.434;2022-12-10T08:55:30;91.22;;;23.50;;
61017;SDS011;48171;51.550;5.434;2022-12-10T08:57:56;88.05;;;22.50;;
61017;SDS011;48171;51.550;5.434;2022-12-10T09:00:22;89.05;;;24.02;;
61017;SDS011;48171;51.550;5.434;2022-12-10T09:02:48;84.65;;;23.85;;
61017;SDS011;48171;51.550;5.434;2022-12-10T09:05:14;82.28;;;21.83;;
61017;SDS011;48171;51.550;5.434;2022-12-10T09:07:39;82.13;;;23.75;;
61017;SDS011;48171;51.550;5.434;2022-12-10T09:10:05;86.35;;;24.40;;
61017;SDS011;48171;51.550;5.434;2022-12-10T09:12:32;84.38;;;21.02;;
61017;SDS011;48171;51.550;5.434;2022-12-10T09:14:58;83.13;;;21.77;;
61017;SDS011;48171;51.550;5.434;2022-12-10T09:17:23;90.13;;;22.35;;
61017;SDS011;48171;51.550;5.434;2022-12-10T09:19:49;100.35;;;21.58;;
61017;SDS011;48171;51.550;5.434;2022-12-10T09:22:14;87.38;;;23.63;;
61017;SDS011;48171;51.550;5.434;2022-12-10T09:24:39;75.93;;;22.33;;
61017;SDS011;48171;51.550;5.434;2022-12-10T09:27:05;88.47;;;23.10;;
61017;SDS011;48171;51.550;5.434;2022-12-10T09:29:30;85.20;;;20.20;;
61017;SDS011;48171;51.550;5.434;2022-12-10T09:31:56;74.80;;;20.10;;
61017;SDS011;48171;51.550;5.434;2022-12-10T09:34:21;79.72;;;22.25;;
61017;SDS011;48171;51.550;5.434;2022-12-10T09:36:47;86.45;;;22.15;;
61017;SDS011;48171;51.550;5.434;2022-12-10T09:39:12;81.60;;;21.63;;
61017;SDS011;48171;51.550;5.434;2022-12-10T09:41:50;83.97;;;20.85;;
61017;SDS011;48171;51.550;5.434;2022-12-10T09:47:19;75.35;;;19.83;;
61017;SDS011;48171;51.550;5.434;2022-12-10T09:52:39;71.10;;;18.77;;
61017;SDS011;48171;51.550;5.434;2022-12-10T09:55:11;74.78;;;19.70;;
61017;SDS011;48171;51.550;5.434;2022-12-10T09:57:47;77.60;;;19.90;;
61017;SDS011;48171;51.550;5.434;2022-12-10T10:00:29;89.57;;;21.55;;
61017;SDS011;48171;51.550;5.434;2022-12-10T10:03:03;82.95;;;19.67;;
61017;SDS011;48171;51.550;5.434;2022-12-10T10:08:01;130.60;;;41.00;;
61017;SDS011;48171;51.550;5.434;2022-12-10T10:10:35;91.22;;;24.20;;
61017;SDS011;48171;51.550;5.434;2022-12-10T10:13:15;72.85;;;19.10;;
61017;SDS011;48171;51.550;5.434;2022-12-10T10:15:53;74.72;;;19.48;;
61017;SDS011;48171;51.550;5.434;2022-12-10T10:20:59;68.00;;;19.80;;
61017;SDS011;48171;51.550;5.434;2022-12-10T10:23:25;76.47;;;19.45;;
61017;SDS011;48171;51.550;5.434;2022-12-10T10:25:50;73.05;;;20.42;;
61017;SDS011;48171;51.550;5.434;2022-12-10T10:28:18;67.57;;;18.13;;
61017;SDS011;48171;51.550;5.434;2022-12-10T10:30:45;77.65;;;19.05;;
61017;SDS011;48171;51.550;5.434;2022-12-10T10:33:12;74.90;;;20.52;;
61017;SDS011;48171;51.550;5.434;2022-12-10T10:35:49;76.38;;;20.05;;
61017;SDS011;48171;51.550;5.434;2022-12-10T10:38:28;71.20;;;18.10;;
61017;SDS011;48171;51.550;5.434;2022-12-10T10:40:58;74.80;;;19.80;;
61017;SDS011;48171;51.550;5.434;2022-12-10T10:43:28;78.15;;;19.55;;
61017;SDS011;48171;51.550;5.434;2022-12-10T10:46:04;70.25;;;18.77;;
61017;SDS011;48171;51.550;5.434;2022-12-10T10:48:37;76.20;;;19.40;;
61017;SDS011;48171;51.550;5.434;2022-12-10T10:51:07;66.97;;;18.77;;
61017;SDS011;48171;51.550;5.434;2022-12-10T10:56:21;74.90;;;18.58;;
61017;SDS011;48171;51.550;5.434;2022-12-10T11:01:27;76.53;;;18.70;;
61017;SDS011;48171;51.550;5.434;2022-12-10T11:04:13;72.07;;;20.00;;
61017;SDS011;48171;51.550;5.434;2022-12-10T11:06:40;68.68;;;18.45;;
61017;SDS011;48171;51.550;5.434;2022-12-10T11:09:06;81.88;;;19.75;;
61017;SDS011;48171;51.550;5.434;2022-12-10T11:11:36;70.13;;;18.50;;
61017;SDS011;48171;51.550;5.434;2022-12-10T11:14:24;74.10;;;18.20;;
61017;SDS011;48171;51.550;5.434;2022-12-10T11:19:41;69.15;;;18.58;;
61017;SDS011;48171;51.550;5.434;2022-12-10T11:22:19;75.32;;;19.33;;
61017;SDS011;48171;51.550;5.434;2022-12-10T11:24:48;69.82;;;18.85;;
61017;SDS011;48171;51.550;5.434;2022-12-10T11:27:17;74.32;;;19.45;;
61017;SDS011;48171;51.550;5.434;2022-12-10T11:30:06;66.18;;;18.02;;
61017;SDS011;48171;51.550;5.434;2022-12-10T11:32:43;78.15;;;19.38;;
61017;SDS011;48171;51.550;5.434;2022-12-10T11:35:19;69.35;;;18.92;;
61017;SDS011;48171;51.550;5.434;2022-12-10T11:38:01;78.63;;;18.50;;
61017;SDS011;48171;51.550;5.434;2022-12-10T11:49:21;65.47;;;17.60;;
61017;SDS011;48171;51.550;5.434;2022-12-10T11:51:57;72.10;;;18.65;;
61017;SDS011;48171;51.550;5.434;2022-12-10T12:00:03;74.10;;;21.52;;
61017;SDS011;48171;51.550;5.434;2022-12-10T12:02:55;66.13;;;19.20;;
61017;SDS011;48171;51.550;5.434;2022-12-10T12:08:15;72.68;;;19.63;;
61017;SDS011;48171;51.550;5.434;2022-12-10T12:13:23;74.95;;;20.05;;
61017;SDS011;48171;51.550;5.434;2022-12-10T12:15:58;77.78;;;19.30;;
61017;SDS011;48171;51.550;5.434;2022-12-10T12:18:33;70.35;;;19.40;;
61017;SDS011;48171;51.550;5.434;2022-12-10T12:21:08;71.65;;;19.05;;
61017;SDS011;48171;51.550;5.434;2022-12-10T12:26:06;61.58;;;16.98;;
61017;SDS011;48171;51.550;5.434;2022-12-10T12:28:37;56.03;;;15.57;;
61017;SDS011;48171;51.550;5.434;2022-12-10T12:31:25;60.72;;;16.58;;
61017;SDS011;48171;51.550;5.434;2022-12-10T12:37:01;70.50;;;18.92;;
61017;SDS011;48171;51.550;5.434;2022-12-10T12:39:34;110.68;;;36.10;;
61017;SDS011;48171;51.550;5.434;2022-12-10T12:53:03;68.32;;;18.33;;
61017;SDS011;48171;51.550;5.434;2022-12-10T12:58:17;65.22;;;17.90;;
61017;SDS011;48171;51.550;5.434;2022-12-10T13:00:50;63.35;;;17.92;;
61017;SDS011;48171;51.550;5.434;2022-12-10T13:06:31;71.82;;;18.92;;
61017;SDS011;48171;51.550;5.434;2022-12-10T13:11:36;69.43;;;18.75;;
61017;SDS011;48171;51.550;5.434;2022-12-10T13:32:20;63.05;;;18.35;;
61017;SDS011;48171;51.550;5.434;2022-12-10T13:35:15;62.55;;;17.30;;
61017;SDS011;48171;51.550;5.434;2022-12-10T13:37:34;51.40;;;15.32;;
61017;SDS011;48171;51.550;5.434;2022-12-10T13:40:25;63.13;;;15.57;;
61017;SDS011;48171;51.550;5.434;2022-12-10T13:43:25;69.38;;;17.20;;
61017;SDS011;48171;51.550;5.434;2022-12-10T13:46:56;62.40;;;17.08;;
61017;SDS011;48171;51.550;5.434;2022-12-10T13:49:00;61.30;;;17.08;;
61017;SDS011;48171;51.550;5.434;2022-12-10T13:51:43;60.25;;;16.65;;
61017;SDS011;48171;51.550;5.434;2022-12-10T13:54:30;67.20;;;18.05;;
61017;SDS011;48171;51.550;5.434;2022-12-10T13:57:15;64.90;;;16.63;;
61017;SDS011;48171;51.550;5.434;2022-12-10T14:02:44;67.05;;;16.98;;
61017;SDS011;48171;51.550;5.434;2022-12-10T14:07:47;63.63;;;17.75;;
61017;SDS011;48171;51.550;5.434;2022-12-10T14:10:18;67.68;;;17.40;;
61017;SDS011;48171;51.550;5.434;2022-12-10T14:12:52;63.03;;;17.75;;
61017;SDS011;48171;51.550;5.434;2022-12-10T14:15:20;63.45;;;17.40;;
61017;SDS011;48171;51.550;5.434;2022-12-10T14:17:48;59.28;;;18.27;;
61017;SDS011;48171;51.550;5.434;2022-12-10T14:20:17;62.65;;;16.88;;
61017;SDS011;48171;51.550;5.434;2022-12-10T14:22:47;71.57;;;19.60;;
61017;SDS011;48171;51.550;5.434;2022-12-10T14:25:17;73.43;;;20.10;;
61017;SDS011;48171;51.550;5.434;2022-12-10T14:27:52;62.03;;;17.20;;
61017;SDS011;48171;51.550;5.434;2022-12-10T14:30:20;60.22;;;16.40;;
61017;SDS011;48171;51.550;5.434;2022-12-10T14:32:47;63.53;;;16.63;;
61017;SDS011;48171;51.550;5.434;2022-12-10T14:35:23;70.95;;;17.73;;
61017;SDS011;48171;51.550;5.434;2022-12-10T14:37:52;64.97;;;18.88;;
61017;SDS011;48171;51.550;5.434;2022-12-10T14:40:23;67.25;;;16.02;;
61017;SDS011;48171;51.550;5.434;2022-12-10T14:42:53;63.00;;;16.65;;
61017;SDS011;48171;51.550;5.434;2022-12-10T14:45:22;62.00;;;16.05;;
61017;SDS011;48171;51.550;5.434;2022-12-10T14:47:47;64.82;;;17.80;;
61017;SDS011;48171;51.550;5.434;2022-12-10T14:50:14;59.97;;;16.67;;
61017;SDS011;48171;51.550;5.434;2022-12-10T14:52:42;65.20;;;17.05;;
61017;SDS011;48171;51.550;5.434;2022-12-10T14:55:13;68.75;;;18.50;;
61017;SDS011;48171;51.550;5.434;2022-12-10T14:57:42;77.82;;;18.88;;
61017;SDS011;48171;51.550;5.434;2022-12-10T15:00:16;74.75;;;19.50;;
61017;SDS011;48171;51.550;5.434;2022-12-10T15:02:47;71.72;;;18.63;;
61017;SDS011;48171;51.550;5.434;2022-12-10T15:05:18;70.43;;;18.65;;
61017;SDS011;48171;51.550;5.434;2022-12-10T15:07:51;69.57;;;18.90;;
61017;SDS011;48171;51.550;5.434;2022-12-10T15:10:20;72.05;;;18.58;;
61017;SDS011;48171;51.550;5.434;2022-12-10T15:15:16;59.53;;;15.75;;
61017;SDS011;48171;51.550;5.434;2022-12-10T15:17:54;79.47;;;21.13;;
61017;SDS011;48171;51.550;5.434;2022-12-10T15:25:45;72.13;;;20.52;;
61017;SDS011;48171;51.550;5.434;2022-12-10T15:33:38;72.35;;;19.55;;
61017;SDS011;48171;51.550;5.434;2022-12-10T15:36:11;83.70;;;20.73;;
61017;SDS011;48171;51.550;5.434;2022-12-10T15:38:42;75.30;;;20.63;;
61017;SDS011;48171;51.550;5.434;2022-12-10T15:49:49;83.40;;;19.05;;
61017;SDS011;48171;51.550;5.434;2022-12-10T15:52:21;78.18;;;20.23;;
61017;SDS011;48171;51.550;5.434;2022-12-10T15:54:49;86.47;;;22.77;;
61017;SDS011;48171;51.550;5.434;2022-12-10T15:57:17;87.88;;;20.35;;
61017;SDS011;48171;51.550;5.434;2022-12-10T15:59:44;85.47;;;21.67;;
61017;SDS011;48171;51.550;5.434;2022-12-10T16:02:22;82.68;;;19.45;;
61017;SDS011;48171;51.550;5.434;2022-12-10T16:04:53;81.00;;;19.17;;
61017;SDS011;48171;51.550;5.434;2022-12-10T16:07:19;77.75;;;20.38;;
61017;SDS011;48171;51.550;5.434;2022-12-10T16:09:44;68.85;;;19.55;;
61017;SDS011;48171;51.550;5.434;2022-12-10T16:12:13;74.10;;;18.58;;
61017;SDS011;48171;51.550;5.434;2022-12-10T16:14:40;65.60;;;17.38;;
61017;SDS011;48171;51.550;5.434;2022-12-10T16:17:12;86.32;;;21.33;;
61017;SDS011;48171;51.550;5.434;2022-12-10T16:19:37;83.18;;;21.05;;
61017;SDS011;48171;51.550;5.434;2022-12-10T16:22:03;82.00;;;20.63;;
61017;SDS011;48171;51.550;5.434;2022-12-10T16:24:29;80.97;;;22.10;;
61017;SDS011;48171;51.550;5.434;2022-12-10T16:26:54;81.13;;;19.85;;
61017;SDS011;48171;51.550;5.434;2022-12-10T16:29:19;84.63;;;18.92;;
61017;SDS011;48171;51.550;5.434;2022-12-10T16:31:46;83.20;;;19.27;;
61017;SDS011;48171;51.550;5.434;2022-12-10T16:34:11;80.43;;;19.50;;
61017;SDS011;48171;51.550;5.434;2022-12-10T16:36:36;76.70;;;20.50;;
61017;SDS011;48171;51.550;5.434;2022-12-10T16:39:02;76.65;;;19.15;;